Poquetanuck, Connecticut
Current Conditions -  °F | °C
As of 5:52 PM on Saturday 20 Dec 2014 (Local Time) from KIJD Reporting Station
Overcast Overcast  
Wind Chill: 30°   Ceiling: 3800
Heat Index: 34°   Visibility: 10mi
Dew Point: 23°   Wind: 5mph
Humidity: 64%   Direction: 40°NE
Pressure: 30.27"   Gusts: NA
Location:  41.5523°N, 72.0921°W
Report Text: KIJD 202252Z AUTO 04004KT 10SM OVC038 01/M05 A3027 RMK AO2 SLP252 T00111050
Loading
Personal Weather Stations






























Interactive Weather Map New forecast layout! Learn more

10-Day Weather Forecast

Advertisements
Track Severe Weather on mobile